createdAt,value
2022-08-21T00:02:27.034Z,13.64
2022-08-21T00:04:57.328Z,13.74
2022-08-21T00:07:27.735Z,13.62
2022-08-21T00:09:56.778Z,13.59
2022-08-21T00:12:25.583Z,13.70
2022-08-21T00:14:57.178Z,13.77
2022-08-21T00:17:28.327Z,13.82
2022-08-21T00:19:56.945Z,13.80
2022-08-21T00:22:25.505Z,13.85
2022-08-21T00:24:54.484Z,13.89
2022-08-21T00:27:23.338Z,13.88
2022-08-21T00:29:52.373Z,13.86
2022-08-21T00:32:24.202Z,13.79
2022-08-21T00:34:55.012Z,13.73
2022-08-21T00:37:30.515Z,13.87
2022-08-21T00:40:03.558Z,13.86
2022-08-21T00:42:32.479Z,13.78
2022-08-21T00:45:01.387Z,13.86
2022-08-21T00:47:33.386Z,13.82
2022-08-21T00:50:03.971Z,13.79
2022-08-21T00:52:35.972Z,13.80
2022-08-21T00:55:08.305Z,13.83
2022-08-21T00:57:43.791Z,13.59
2022-08-21T01:00:17.620Z,13.58
2022-08-21T01:02:46.918Z,13.58
2022-08-21T01:05:18.186Z,13.53
2022-08-21T01:07:46.765Z,13.42
2022-08-21T01:10:23.769Z,13.44
2022-08-21T01:12:56.824Z,13.45
2022-08-21T01:15:31.548Z,13.47
2022-08-21T01:18:01.072Z,13.38
2022-08-21T01:20:32.208Z,13.36
2022-08-21T01:23:03.891Z,13.29
2022-08-21T01:25:32.997Z,13.22
2022-08-21T01:28:08.045Z,13.18
2022-08-21T01:30:39.855Z,13.13
2022-08-21T01:33:08.240Z,13.03
2022-08-21T01:35:36.972Z,12.89
2022-08-21T01:38:08.749Z,12.81
2022-08-21T01:40:37.917Z,12.77
2022-08-21T01:43:06.813Z,12.75
2022-08-21T01:45:35.310Z,12.76
2022-08-21T01:48:06.599Z,12.76
2022-08-21T01:50:35.286Z,12.76
2022-08-21T01:53:04.744Z,12.71
2022-08-21T01:55:34.881Z,12.71
2022-08-21T01:58:03.303Z,12.73
2022-08-21T02:00:31.864Z,12.61
2022-08-21T02:03:00.819Z,12.59
2022-08-21T02:05:29.395Z,12.50
2022-08-21T02:07:59.236Z,12.44
2022-08-21T02:10:32.450Z,12.44
2022-08-21T02:13:03.928Z,12.38
2022-08-21T02:15:32.992Z,12.34
2022-08-21T02:18:03.514Z,12.34
2022-08-21T02:20:35.786Z,12.27
2022-08-21T02:23:05.531Z,12.24
2022-08-21T02:25:34.317Z,12.19
2022-08-21T02:28:07.720Z,12.14
2022-08-21T02:30:40.277Z,12.16
2022-08-21T02:33:09.112Z,12.18
2022-08-21T02:35:39.680Z,12.16
2022-08-21T02:38:12.937Z,12.15
2022-08-21T02:40:48.248Z,12.16
2022-08-21T02:43:23.025Z,12.07
2022-08-21T02:45:52.057Z,12.06
2022-08-21T02:48:24.069Z,12.03
2022-08-21T02:50:57.142Z,12.02
2022-08-21T02:53:26.846Z,11.99
2022-08-21T02:55:56.104Z,11.96
2022-08-21T02:58:29.441Z,11.90
2022-08-21T03:00:58.085Z,11.94
2022-08-21T03:03:28.414Z,11.95
2022-08-21T03:05:57.125Z,11.92
2022-08-21T03:08:27.712Z,11.91
2022-08-21T03:10:56.722Z,11.91
2022-08-21T03:13:26.908Z,11.88
2022-08-21T03:15:57.393Z,11.82
2022-08-21T03:18:27.880Z,11.80
2022-08-21T03:20:56.921Z,11.77
2022-08-21T03:23:25.942Z,11.67
2022-08-21T03:26:02.109Z,11.65
2022-08-21T03:28:32.784Z,11.69
2022-08-21T03:31:02.329Z,11.68
2022-08-21T03:33:31.126Z,11.63
2022-08-21T03:36:03.403Z,11.60
2022-08-21T03:38:35.168Z,11.61
2022-08-21T03:41:04.607Z,11.57
2022-08-21T03:43:35.409Z,11.56
2022-08-21T03:46:05.351Z,11.55
2022-08-21T03:48:34.094Z,11.55
2022-08-21T03:51:03.324Z,11.56
2022-08-21T03:53:32.485Z,11.49
2022-08-21T03:56:01.127Z,11.43
2022-08-21T03:58:31.553Z,11.42
2022-08-21T04:01:08.719Z,11.39
2022-08-21T04:03:38.599Z,11.36
2022-08-21T04:06:30.353Z,11.33
2022-08-21T04:09:03.171Z,11.37
2022-08-21T04:11:31.608Z,11.30
2022-08-21T04:14:01.333Z,11.28
2022-08-21T04:16:32.138Z,11.26
2022-08-21T04:19:00.811Z,11.25
2022-08-21T04:21:32.459Z,11.15
2022-08-21T04:24:00.935Z,11.19
2022-08-21T04:26:29.547Z,11.18
2022-08-21T04:28:58.709Z,11.12
2022-08-21T04:31:27.556Z,11.15
2022-08-21T04:33:58.439Z,11.10
2022-08-21T04:36:28.189Z,11.06
2022-08-21T04:38:57.915Z,11.09
2022-08-21T04:41:27.995Z,11.00
2022-08-21T04:43:57.615Z,11.04
2022-08-21T04:46:26.210Z,10.98
2022-08-21T04:48:54.641Z,10.90
2022-08-21T04:51:31.235Z,10.84
2022-08-21T04:54:02.885Z,10.85
2022-08-21T04:56:36.060Z,10.86
2022-08-21T04:59:09.083Z,10.92
2022-08-21T05:01:42.540Z,10.90
2022-08-21T05:04:14.385Z,10.91
2022-08-21T05:06:48.884Z,10.89
2022-08-21T05:09:21.152Z,10.87
2022-08-21T05:11:50.644Z,10.89
2022-08-21T05:14:19.223Z,10.87
2022-08-21T05:16:48.110Z,10.84
2022-08-21T05:19:16.743Z,10.85
2022-08-21T05:21:48.841Z,10.84
2022-08-21T05:24:18.999Z,10.89
2022-08-21T05:26:50.196Z,10.89
2022-08-21T05:29:19.161Z,10.91
2022-08-21T05:31:49.193Z,10.91
2022-08-21T05:34:22.497Z,10.93
2022-08-21T05:36:52.339Z,10.93
2022-08-21T05:39:20.770Z,10.94
2022-08-21T05:41:50.416Z,10.97
2022-08-21T05:44:19.153Z,11.00
2022-08-21T05:46:49.390Z,11.03
2022-08-21T05:49:20.812Z,11.07
2022-08-21T05:51:49.524Z,11.12
2022-08-21T05:54:19.707Z,11.17
2022-08-21T05:56:48.106Z,11.21
2022-08-21T05:59:17.312Z,11.28
2022-08-21T06:01:46.880Z,11.31
2022-08-21T06:04:15.925Z,11.40
2022-08-21T06:06:44.904Z,11.45
2022-08-21T06:09:14.224Z,11.37
2022-08-21T06:11:44.438Z,11.33
2022-08-21T06:14:16.355Z,11.34
2022-08-21T06:16:45.275Z,11.39
2022-08-21T06:19:14.032Z,11.38
2022-08-21T06:21:42.806Z,11.42
2022-08-21T06:24:11.604Z,11.37
2022-08-21T06:26:41.112Z,11.43
2022-08-21T06:29:13.680Z,11.42
2022-08-21T06:31:42.377Z,11.48
2022-08-21T06:34:39.341Z,11.51
2022-08-21T06:37:07.939Z,11.55
2022-08-21T06:39:39.164Z,11.59
2022-08-21T06:42:16.870Z,11.56
2022-08-21T06:44:48.983Z,11.54
2022-08-21T06:47:17.819Z,11.53
2022-08-21T06:49:46.212Z,11.51
2022-08-21T06:52:15.943Z,11.53
2022-08-21T06:54:45.156Z,11.60
2022-08-21T06:57:14.551Z,11.58
2022-08-21T06:59:43.103Z,11.68
2022-08-21T07:02:13.266Z,11.67
2022-08-21T07:04:42.831Z,11.69
2022-08-21T07:07:11.534Z,11.75
2022-08-21T07:09:40.176Z,11.76
2022-08-21T07:12:09.579Z,11.88
2022-08-21T07:14:38.436Z,11.94
2022-08-21T07:17:06.962Z,11.98
2022-08-21T07:19:37.913Z,12.07
2022-08-21T07:22:08.879Z,12.06
2022-08-21T07:24:37.316Z,12.09
2022-08-21T07:27:09.910Z,12.18
2022-08-21T07:29:38.769Z,12.27
2022-08-21T07:32:07.964Z,12.42
2022-08-21T07:34:38.379Z,12.49
2022-08-21T07:37:09.994Z,12.57
2022-08-21T07:39:39.419Z,12.59
2022-08-21T07:42:08.618Z,12.59
2022-08-21T07:44:37.502Z,12.64
2022-08-21T07:47:06.221Z,12.67
2022-08-21T07:49:34.869Z,12.70
2022-08-21T07:52:05.775Z,12.62
2022-08-21T07:54:34.705Z,12.65
2022-08-21T07:57:03.690Z,12.76
2022-08-21T07:59:32.461Z,12.87
2022-08-21T08:02:01.008Z,13.02
2022-08-21T08:04:29.581Z,13.01
2022-08-21T08:06:58.218Z,13.10
2022-08-21T08:09:28.141Z,13.17
2022-08-21T08:11:56.760Z,13.24
2022-08-21T08:14:31.451Z,13.32
2022-08-21T08:17:00.498Z,13.50
2022-08-21T08:19:28.965Z,13.57
2022-08-21T08:21:57.684Z,13.71
2022-08-21T08:24:27.589Z,13.89
2022-08-21T08:26:58.313Z,14.03
2022-08-21T08:29:26.784Z,14.26
2022-08-21T08:31:56.550Z,14.39
2022-08-21T08:34:25.675Z,14.49
2022-08-21T08:36:54.778Z,14.54
2022-08-21T08:39:26.459Z,14.66
2022-08-21T08:42:03.535Z,14.75
2022-08-21T08:44:58.193Z,14.72
2022-08-21T08:47:28.317Z,14.69
2022-08-21T08:50:04.687Z,14.74
2022-08-21T08:52:36.036Z,14.78
2022-08-21T08:55:08.786Z,14.76
2022-08-21T08:57:40.635Z,14.81
2022-08-21T09:00:13.362Z,14.92
2022-08-21T09:02:47.361Z,15.02
2022-08-21T09:05:24.242Z,15.15
2022-08-21T09:08:18.659Z,15.30
2022-08-21T09:11:00.062Z,15.67
2022-08-21T09:13:43.627Z,15.94
2022-08-21T09:16:23.240Z,16.07
2022-08-21T09:19:03.772Z,16.15
2022-08-21T09:21:42.304Z,16.34
2022-08-21T09:24:28.333Z,16.29
2022-08-21T09:27:05.889Z,16.62
2022-08-21T09:29:38.900Z,16.89
2022-08-21T09:32:18.533Z,17.00
2022-08-21T09:35:00.306Z,17.09
2022-08-21T09:37:31.900Z,17.22
2022-08-21T09:40:01.774Z,17.60
2022-08-21T09:42:33.797Z,17.16
2022-08-21T09:45:14.999Z,16.78
2022-08-21T09:47:44.455Z,17.03
2022-08-21T09:50:17.568Z,17.38
2022-08-21T09:52:52.298Z,18.04
2022-08-21T09:55:51.399Z,18.41
2022-08-21T09:58:21.137Z,18.53
2022-08-21T10:01:01.230Z,18.83
2022-08-21T10:03:29.784Z,18.87
2022-08-21T10:06:02.256Z,19.01
2022-08-21T10:08:34.480Z,19.25
2022-08-21T10:11:14.401Z,18.89
2022-08-21T10:14:01.851Z,19.01
2022-08-21T10:16:43.357Z,19.24
2022-08-21T10:19:24.096Z,19.57
2022-08-21T10:22:08.959Z,18.94
2022-08-21T10:24:49.430Z,18.67
2022-08-21T10:27:29.790Z,18.77
2022-08-21T10:30:05.217Z,19.05
2022-08-21T10:32:48.590Z,19.29
2022-08-21T10:35:24.883Z,18.93
2022-08-21T10:38:39.379Z,18.98
2022-08-21T10:41:15.965Z,19.51
2022-08-21T10:43:58.819Z,19.59
2022-08-21T10:46:40.129Z,19.79
2022-08-21T10:49:23.462Z,19.68
2022-08-21T10:52:03.380Z,19.50
2022-08-21T10:54:40.997Z,19.51
2022-08-21T10:57:16.979Z,19.70
2022-08-21T11:00:03.023Z,19.08
2022-08-21T11:02:38.612Z,19.13
2022-08-21T11:05:16.889Z,19.15
2022-08-21T11:07:50.450Z,18.77
2022-08-21T11:10:25.586Z,18.62
2022-08-21T11:12:58.776Z,19.21
2022-08-21T11:15:38.193Z,19.55
2022-08-21T11:18:18.419Z,19.14
2022-08-21T11:20:59.252Z,18.45
2022-08-21T11:23:33.745Z,18.42
2022-08-21T11:26:20.117Z,18.22
2022-08-21T11:28:55.108Z,18.68
2022-08-21T11:31:36.726Z,19.02
2022-08-21T11:34:21.193Z,19.42
2022-08-21T11:37:01.537Z,19.60
2022-08-21T11:39:40.768Z,19.61
2022-08-21T11:42:22.660Z,19.85
2022-08-21T11:44:58.849Z,19.77
2022-08-21T11:47:40.546Z,19.94
2022-08-21T11:50:29.749Z,20.05
2022-08-21T11:53:11.299Z,20.16
2022-08-21T11:55:44.625Z,20.27
2022-08-21T11:58:18.741Z,20.49
2022-08-21T12:00:52.965Z,20.66
2022-08-21T12:03:29.029Z,20.63
2022-08-21T12:06:01.209Z,20.59
2022-08-21T12:08:34.317Z,21.05
2022-08-21T12:11:06.884Z,21.09
2022-08-21T12:13:42.081Z,21.36
2022-08-21T12:16:14.496Z,21.48
2022-08-21T12:18:44.059Z,21.26
2022-08-21T12:21:28.663Z,21.55
2022-08-21T12:24:07.915Z,21.47
2022-08-21T12:26:38.904Z,21.24
2022-08-21T12:29:15.449Z,21.09
2022-08-21T12:31:53.326Z,20.98
2022-08-21T12:34:25.785Z,21.53
2022-08-21T12:36:59.618Z,21.51
2022-08-21T12:39:33.310Z,21.56
2022-08-21T12:42:09.654Z,21.38
2022-08-21T12:44:42.761Z,21.09
2022-08-21T12:47:18.772Z,21.13
2022-08-21T12:49:57.233Z,21.17
2022-08-21T12:52:34.558Z,21.26
2022-08-21T12:55:09.973Z,21.11
2022-08-21T12:57:40.471Z,21.50
2022-08-21T13:00:14.455Z,22.00
2022-08-21T13:02:48.989Z,22.55
2022-08-21T13:05:27.120Z,22.25
2022-08-21T13:07:55.779Z,22.02
2022-08-21T13:10:28.612Z,21.35
2022-08-21T13:12:59.436Z,21.50
2022-08-21T13:15:33.398Z,21.44
2022-08-21T13:18:04.670Z,20.96
2022-08-21T13:20:35.505Z,20.62
2022-08-21T13:23:08.896Z,20.94
2022-08-21T13:25:39.954Z,21.16
2022-08-21T13:28:14.550Z,20.80
2022-08-21T13:30:45.893Z,21.22
2022-08-21T13:33:16.761Z,21.08
2022-08-21T13:35:51.865Z,20.85
2022-08-21T13:38:27.360Z,20.98
2022-08-21T13:41:01.156Z,21.20
2022-08-21T13:43:37.824Z,20.84
2022-08-21T13:46:14.695Z,21.03
2022-08-21T13:48:44.764Z,21.67
2022-08-21T13:51:14.667Z,22.03
2022-08-21T13:53:53.013Z,21.02
2022-08-21T13:56:59.922Z,21.80
2022-08-21T13:59:37.862Z,22.14
2022-08-21T14:02:16.076Z,23.00
2022-08-21T14:04:53.150Z,23.66
2022-08-21T14:07:27.519Z,23.05
2022-08-21T14:09:57.325Z,23.07
2022-08-21T14:12:30.920Z,23.80
2022-08-21T14:15:01.115Z,24.05
2022-08-21T14:17:34.108Z,23.79
2022-08-21T14:20:03.584Z,24.03
2022-08-21T14:22:38.946Z,23.38
2022-08-21T14:25:09.987Z,22.93
2022-08-21T14:27:45.841Z,21.39
2022-08-21T14:30:21.232Z,22.01
2022-08-21T14:32:53.715Z,21.30
2022-08-21T14:35:23.795Z,21.24
2022-08-21T14:37:55.172Z,21.32
2022-08-21T14:40:26.958Z,21.21
2022-08-21T14:43:00.227Z,20.52
2022-08-21T14:45:30.490Z,20.33
2022-08-21T14:48:05.981Z,20.27
2022-08-21T14:50:34.315Z,20.78
2022-08-21T14:53:04.597Z,20.83
2022-08-21T14:55:54.545Z,20.40
2022-08-21T14:58:26.335Z,20.44
2022-08-21T15:00:57.272Z,20.58
2022-08-21T15:03:25.928Z,20.10
2022-08-21T15:05:54.937Z,20.71
2022-08-21T15:08:23.399Z,20.72
2022-08-21T15:11:10.966Z,20.58
2022-08-21T15:13:42.902Z,19.86
2022-08-21T15:16:13.819Z,21.17
2022-08-21T15:18:43.042Z,22.18
2022-08-21T15:21:11.724Z,23.19
2022-08-21T15:23:43.793Z,24.44
2022-08-21T15:26:12.603Z,24.35
2022-08-21T15:28:43.389Z,24.59
2022-08-21T15:31:12.080Z,23.91
2022-08-21T15:33:40.640Z,25.39
2022-08-21T15:36:09.780Z,25.27
2022-08-21T15:38:38.311Z,25.12
2022-08-21T15:41:08.423Z,26.27
2022-08-21T15:43:47.464Z,26.78
2022-08-21T15:46:18.008Z,26.27
2022-08-21T15:48:48.015Z,26.85
2022-08-21T15:51:18.661Z,27.34
2022-08-21T15:53:47.990Z,26.21
2022-08-21T15:56:24.449Z,26.39
2022-08-21T15:58:56.403Z,27.55
2022-08-21T16:01:24.773Z,28.45
2022-08-21T16:03:56.448Z,27.65
2022-08-21T16:06:37.992Z,26.04
2022-08-21T16:09:13.642Z,27.16
2022-08-21T16:11:42.320Z,26.66
2022-08-21T16:14:13.704Z,25.85
2022-08-21T16:16:43.631Z,25.73
2022-08-21T16:19:14.655Z,27.32
2022-08-21T16:21:43.109Z,25.86
2022-08-21T16:24:11.512Z,26.40
2022-08-21T16:26:40.320Z,26.46
2022-08-21T16:29:10.693Z,27.00
2022-08-21T16:31:40.621Z,25.79
2022-08-21T16:34:09.904Z,26.02
2022-08-21T16:36:43.947Z,25.69
2022-08-21T16:39:12.841Z,26.45
2022-08-21T16:41:41.757Z,26.30
2022-08-21T16:44:11.207Z,25.83
2022-08-21T16:46:43.418Z,26.50
2022-08-21T16:49:12.056Z,25.95
2022-08-21T16:51:40.747Z,26.19
2022-08-21T16:54:09.559Z,26.51
2022-08-21T16:56:40.418Z,25.15
2022-08-21T16:59:12.472Z,26.74
2022-08-21T17:01:43.362Z,27.31
2022-08-21T17:04:12.438Z,26.76
2022-08-21T17:06:41.131Z,26.68
2022-08-21T17:09:11.553Z,25.93
2022-08-21T17:11:42.395Z,26.91
2022-08-21T17:14:14.407Z,26.84
2022-08-21T17:16:48.929Z,27.42
2022-08-21T17:19:18.633Z,28.79
2022-08-21T17:21:47.179Z,27.11
2022-08-21T17:24:16.336Z,25.64
2022-08-21T17:26:46.586Z,27.18
2022-08-21T17:29:16.554Z,26.26
2022-08-21T17:31:47.300Z,26.41
2022-08-21T17:34:16.965Z,27.17
2022-08-21T17:36:48.024Z,27.18
2022-08-21T17:39:22.349Z,26.24
2022-08-21T17:41:57.912Z,23.20
2022-08-21T17:44:27.648Z,21.49
2022-08-21T17:46:58.457Z,20.96
2022-08-21T17:49:26.837Z,20.67
2022-08-21T17:51:55.544Z,23.82
2022-08-21T17:54:25.628Z,23.75
2022-08-21T17:56:56.297Z,21.59
2022-08-21T17:59:26.322Z,20.14
2022-08-21T18:02:01.684Z,19.63
2022-08-21T18:04:31.390Z,19.34
2022-08-21T18:07:00.035Z,19.92
2022-08-21T18:09:28.781Z,19.29
2022-08-21T18:11:58.803Z,19.48
2022-08-21T18:14:33.336Z,19.34
2022-08-21T18:17:05.122Z,18.70
2022-08-21T18:19:36.110Z,18.84
2022-08-21T18:22:21.127Z,19.19
2022-08-21T18:24:50.503Z,18.93
2022-08-21T18:27:20.458Z,18.79
2022-08-21T18:29:50.970Z,18.85
2022-08-21T18:32:31.832Z,18.37
2022-08-21T18:35:04.174Z,18.46
2022-08-21T18:37:32.702Z,18.31
2022-08-21T18:40:01.693Z,18.14
2022-08-21T18:42:40.461Z,18.11
2022-08-21T18:45:13.016Z,18.15
2022-08-21T18:47:48.854Z,17.93
2022-08-21T18:50:22.403Z,17.76
2022-08-21T18:52:55.527Z,17.54
2022-08-21T18:55:25.308Z,17.61
2022-08-21T18:57:57.360Z,17.75
2022-08-21T19:00:30.524Z,17.42
2022-08-21T19:03:01.726Z,17.78
2022-08-21T19:05:36.391Z,17.83
2022-08-21T19:11:23.405Z,17.32
2022-08-21T19:13:55.230Z,17.32
2022-08-21T19:16:24.389Z,16.91
2022-08-21T19:18:55.207Z,16.86
2022-08-21T19:21:42.479Z,16.85
2022-08-21T19:24:18.170Z,16.91
2022-08-21T19:27:09.040Z,16.71
2022-08-21T19:29:42.564Z,16.57
2022-08-21T19:32:15.347Z,16.41
2022-08-21T19:34:51.115Z,16.45
2022-08-21T19:37:20.724Z,16.49
2022-08-21T19:39:50.532Z,16.36
2022-08-21T19:42:21.767Z,16.39
2022-08-21T19:47:47.890Z,16.50
2022-08-21T19:50:21.414Z,16.45
2022-08-21T19:52:51.720Z,16.29
2022-08-21T19:55:23.289Z,16.44
2022-08-21T19:57:52.932Z,16.24
2022-08-21T20:00:24.111Z,16.26
2022-08-21T20:02:53.722Z,16.40
2022-08-21T20:05:24.591Z,16.30
2022-08-21T20:08:11.753Z,16.17
2022-08-21T20:10:49.910Z,16.33
2022-08-21T20:13:22.413Z,16.26
2022-08-21T20:15:51.998Z,16.43
2022-08-21T20:18:31.408Z,16.32
2022-08-21T20:21:01.541Z,16.25
2022-08-21T20:23:30.717Z,16.43
2022-08-21T20:26:06.271Z,16.33
2022-08-21T20:28:36.982Z,16.39
2022-08-21T20:31:09.593Z,16.24
2022-08-21T20:33:38.512Z,16.28
2022-08-21T20:36:09.596Z,16.28
2022-08-21T20:38:38.906Z,16.13
2022-08-21T20:41:17.863Z,16.20
2022-08-21T20:43:51.931Z,16.10
2022-08-21T20:46:27.510Z,16.04
2022-08-21T20:48:58.355Z,16.07
2022-08-21T20:51:39.041Z,16.20
2022-08-21T20:54:16.743Z,16.25
2022-08-21T20:56:50.614Z,16.25
2022-08-21T20:59:43.085Z,16.02
2022-08-21T21:02:22.775Z,16.01
2022-08-21T21:04:55.669Z,15.87
2022-08-21T21:07:29.790Z,16.04
2022-08-21T21:10:05.854Z,16.05
2022-08-21T21:12:40.444Z,16.09
2022-08-21T21:15:14.703Z,16.05
2022-08-21T21:17:49.095Z,15.96
2022-08-21T21:20:22.601Z,16.06
2022-08-21T21:23:02.547Z,16.07
2022-08-21T21:25:39.896Z,16.02
2022-08-21T21:28:14.053Z,15.95
2022-08-21T21:30:46.589Z,15.94
2022-08-21T21:33:18.570Z,16.10
2022-08-21T21:35:53.382Z,16.01
2022-08-21T21:38:31.593Z,16.11
2022-08-21T21:41:13.059Z,16.25
2022-08-21T21:44:21.339Z,16.07
2022-08-21T21:46:57.000Z,16.08
2022-08-21T21:49:36.881Z,16.04
2022-08-21T21:52:20.629Z,16.02
2022-08-21T21:55:06.957Z,16.08
2022-08-21T21:58:00.313Z,16.00
2022-08-21T22:00:37.134Z,16.05
2022-08-21T22:03:13.659Z,16.02
2022-08-21T22:05:56.778Z,16.06
2022-08-21T22:08:39.621Z,16.01
2022-08-21T22:11:29.551Z,16.11
2022-08-21T22:14:05.479Z,16.16
2022-08-21T22:16:37.679Z,16.25
2022-08-21T22:19:15.022Z,16.15
2022-08-21T22:21:51.736Z,16.16
2022-08-21T22:24:26.127Z,16.18
2022-08-21T22:27:04.771Z,16.16
2022-08-21T22:29:46.437Z,16.02
2022-08-21T22:32:24.566Z,16.22
2022-08-21T22:35:14.282Z,16.10
2022-08-21T22:37:47.675Z,16.07
2022-08-21T22:40:26.409Z,16.19
2022-08-21T22:43:07.376Z,16.17
2022-08-21T22:45:57.694Z,16.14
2022-08-21T22:48:32.761Z,16.20
2022-08-21T22:51:05.327Z,16.29
2022-08-21T22:53:37.861Z,16.22
2022-08-21T22:56:09.768Z,16.26
2022-08-21T22:58:55.182Z,15.95
2022-08-21T23:01:40.151Z,15.95
2022-08-21T23:04:18.699Z,15.93
2022-08-21T23:06:52.710Z,16.08
2022-08-21T23:09:32.003Z,16.22
2022-08-21T23:12:21.428Z,16.11
2022-08-21T23:14:55.113Z,16.17
2022-08-21T23:17:39.917Z,16.07
2022-08-21T23:20:17.247Z,16.08
2022-08-21T23:22:57.211Z,16.18
2022-08-21T23:25:55.095Z,16.15
2022-08-21T23:28:41.213Z,16.12
2022-08-21T23:31:22.817Z,16.10
2022-08-21T23:34:15.945Z,16.17
2022-08-21T23:37:18.613Z,16.10
2022-08-21T23:40:12.074Z,16.14
2022-08-21T23:43:07.631Z,16.06
2022-08-21T23:45:49.144Z,15.90
2022-08-21T23:48:33.017Z,15.97
2022-08-21T23:51:04.798Z,16.14
2022-08-21T23:53:50.316Z,16.19
2022-08-21T23:56:33.409Z,16.28
2022-08-21T23:59:14.186Z,16.05
